sensor_id;sensor_type;location;lat;lon;timestamp;pressure;altitude;pressure_sealevel;temperature;humidity
31595;BME280;18200;48.726;8.892;2023-05-22T00:00:08;96391.31;;;29.21;34.90
31595;BME280;18200;48.726;8.892;2023-05-22T00:04:10;96383.81;;;29.27;34.52
31595;BME280;18200;48.726;8.892;2023-05-22T00:08:12;96375.00;;;28.82;34.29
31595;BME280;18200;48.726;8.892;2023-05-22T00:12:12;96378.44;;;28.22;35.61
31595;BME280;18200;48.726;8.892;2023-05-22T00:16:13;96379.72;;;28.41;35.68
31595;BME280;18200;48.726;8.892;2023-05-22T00:20:13;96376.09;;;28.90;35.45
31595;BME280;18200;48.726;8.892;2023-05-22T00:24:13;96376.47;;;28.43;35.47
31595;BME280;18200;48.726;8.892;2023-05-22T00:28:14;96372.72;;;28.81;34.96
31595;BME280;18200;48.726;8.892;2023-05-22T00:32:14;96375.81;;;29.08;34.43
31595;BME280;18200;48.726;8.892;2023-05-22T00:36:15;96370.69;;;29.01;34.07
31595;BME280;18200;48.726;8.892;2023-05-22T00:40:15;96372.53;;;29.10;33.86
31595;BME280;18200;48.726;8.892;2023-05-22T00:44:15;96373.59;;;28.92;34.05
31595;BME280;18200;48.726;8.892;2023-05-22T00:48:16;96375.69;;;28.97;34.17
31595;BME280;18200;48.726;8.892;2023-05-22T00:52:16;96375.41;;;28.75;34.09
31595;BME280;18200;48.726;8.892;2023-05-22T00:56:18;96366.91;;;28.79;34.31
31595;BME280;18200;48.726;8.892;2023-05-22T01:00:19;96376.13;;;28.35;34.53
31595;BME280;18200;48.726;8.892;2023-05-22T01:04:19;96367.03;;;28.15;34.98
31595;BME280;18200;48.726;8.892;2023-05-22T01:08:22;96378.16;;;28.55;35.06
31595;BME280;18200;48.726;8.892;2023-05-22T01:12:30;96382.59;;;27.98;35.17
31595;BME280;18200;48.726;8.892;2023-05-22T01:16:46;96372.16;;;28.22;35.43
31595;BME280;18200;48.726;8.892;2023-05-22T01:20:53;96377.59;;;28.51;34.65
31595;BME280;18200;48.726;8.892;2023-05-22T01:33:36;96386.34;;;28.50;34.17
31595;BME280;18200;48.726;8.892;2023-05-22T01:37:41;96378.94;;;28.41;34.23
31595;BME280;18200;48.726;8.892;2023-05-22T01:41:42;96388.16;;;28.18;33.96
31595;BME280;18200;48.726;8.892;2023-05-22T01:45:44;96395.91;;;28.14;34.88
31595;BME280;18200;48.726;8.892;2023-05-22T01:49:45;96394.94;;;27.88;35.06
31595;BME280;18200;48.726;8.892;2023-05-22T01:54:09;96401.94;;;27.98;35.40
31595;BME280;18200;48.726;8.892;2023-05-22T02:02:34;96397.91;;;27.84;35.53
31595;BME280;18200;48.726;8.892;2023-05-22T02:06:36;96400.78;;;27.90;35.50
31595;BME280;18200;48.726;8.892;2023-05-22T02:10:37;96398.88;;;27.52;36.31
31595;BME280;18200;48.726;8.892;2023-05-22T02:14:39;96407.84;;;27.61;35.74
31595;BME280;18200;48.726;8.892;2023-05-22T02:18:40;96400.00;;;27.60;35.07
31595;BME280;18200;48.726;8.892;2023-05-22T02:22:42;96402.09;;;27.80;35.42
31595;BME280;18200;48.726;8.892;2023-05-22T02:26:43;96398.50;;;27.59;35.53
31595;BME280;18200;48.726;8.892;2023-05-22T02:30:44;96398.25;;;27.33;36.43
31595;BME280;18200;48.726;8.892;2023-05-22T02:34:44;96392.69;;;27.42;35.50
31595;BME280;18200;48.726;8.892;2023-05-22T02:38:44;96395.06;;;27.49;35.45
31595;BME280;18200;48.726;8.892;2023-05-22T02:42:45;96400.22;;;27.56;35.22
31595;BME280;18200;48.726;8.892;2023-05-22T02:46:46;96397.53;;;27.47;35.74
31595;BME280;18200;48.726;8.892;2023-05-22T02:50:46;96395.72;;;27.74;35.74
31595;BME280;18200;48.726;8.892;2023-05-22T02:54:48;96405.34;;;27.93;35.19
31595;BME280;18200;48.726;8.892;2023-05-22T02:58:48;96399.38;;;27.12;35.93
31595;BME280;18200;48.726;8.892;2023-05-22T03:02:48;96391.25;;;26.70;37.12
31595;BME280;18200;48.726;8.892;2023-05-22T03:06:49;96391.16;;;26.56;37.38
31595;BME280;18200;48.726;8.892;2023-05-22T03:10:49;96394.34;;;26.40;38.17
31595;BME280;18200;48.726;8.892;2023-05-22T03:14:50;96391.34;;;27.00;37.16
31595;BME280;18200;48.726;8.892;2023-05-22T03:19:08;96397.47;;;27.18;36.64
31595;BME280;18200;48.726;8.892;2023-05-22T03:23:10;96398.09;;;27.51;36.53
31595;BME280;18200;48.726;8.892;2023-05-22T03:27:15;96393.06;;;27.35;36.36
31595;BME280;18200;48.726;8.892;2023-05-22T03:31:16;96393.28;;;27.08;37.47
31595;BME280;18200;48.726;8.892;2023-05-22T03:35:31;96397.50;;;26.71;36.98
31595;BME280;18200;48.726;8.892;2023-05-22T03:39:31;96405.31;;;26.49;38.15
31595;BME280;18200;48.726;8.892;2023-05-22T03:43:35;96396.00;;;26.70;37.88
31595;BME280;18200;48.726;8.892;2023-05-22T03:47:36;96402.03;;;27.45;36.84
31595;BME280;18200;48.726;8.892;2023-05-22T03:51:36;96398.22;;;27.42;36.50
31595;BME280;18200;48.726;8.892;2023-05-22T03:55:37;96401.38;;;26.88;36.92
31595;BME280;18200;48.726;8.892;2023-05-22T03:59:37;96415.47;;;26.43;37.61
31595;BME280;18200;48.726;8.892;2023-05-22T04:03:37;96420.97;;;26.90;36.94
31595;BME280;18200;48.726;8.892;2023-05-22T04:07:38;96422.75;;;27.02;37.42
31595;BME280;18200;48.726;8.892;2023-05-22T04:11:38;96426.22;;;27.26;36.87
31595;BME280;18200;48.726;8.892;2023-05-22T04:15:39;96428.38;;;27.60;36.90
31595;BME280;18200;48.726;8.892;2023-05-22T04:19:40;96418.88;;;27.61;36.50
31595;BME280;18200;48.726;8.892;2023-05-22T04:23:41;96425.91;;;27.62;36.36
31595;BME280;18200;48.726;8.892;2023-05-22T04:27:42;96423.06;;;27.72;35.84
31595;BME280;18200;48.726;8.892;2023-05-22T04:31:42;96420.09;;;27.60;35.57
31595;BME280;18200;48.726;8.892;2023-05-22T04:35:44;96427.88;;;27.09;37.15
31595;BME280;18200;48.726;8.892;2023-05-22T04:39:45;96416.00;;;27.56;37.01
31595;BME280;18200;48.726;8.892;2023-05-22T04:43:46;96419.22;;;27.84;36.35
31595;BME280;18200;48.726;8.892;2023-05-22T04:47:48;96420.19;;;28.10;36.05
31595;BME280;18200;48.726;8.892;2023-05-22T04:51:48;96420.97;;;27.96;35.85
31595;BME280;18200;48.726;8.892;2023-05-22T04:55:48;96421.34;;;27.89;36.20
31595;BME280;18200;48.726;8.892;2023-05-22T04:59:49;96425.16;;;27.77;36.48
31595;BME280;18200;48.726;8.892;2023-05-22T05:03:49;96421.56;;;27.32;36.94
31595;BME280;18200;48.726;8.892;2023-05-22T05:07:50;96426.38;;;27.08;37.90
31595;BME280;18200;48.726;8.892;2023-05-22T05:11:51;96426.47;;;27.52;37.79
31595;BME280;18200;48.726;8.892;2023-05-22T05:15:53;96424.19;;;27.94;36.96
31595;BME280;18200;48.726;8.892;2023-05-22T05:19:53;96423.81;;;27.87;36.85
31595;BME280;18200;48.726;8.892;2023-05-22T05:23:54;96430.31;;;28.13;36.75
31595;BME280;18200;48.726;8.892;2023-05-22T05:27:55;96426.63;;;28.36;36.21
31595;BME280;18200;48.726;8.892;2023-05-22T05:31:57;96428.22;;;28.77;36.27
31595;BME280;18200;48.726;8.892;2023-05-22T05:36:13;96429.75;;;28.78;35.37
31595;BME280;18200;48.726;8.892;2023-05-22T05:40:14;96431.00;;;28.97;35.33
31595;BME280;18200;48.726;8.892;2023-05-22T05:44:23;96435.19;;;28.38;36.88
31595;BME280;18200;48.726;8.892;2023-05-22T05:48:23;96432.00;;;27.96;37.89
31595;BME280;18200;48.726;8.892;2023-05-22T05:52:25;96434.31;;;28.61;37.20
31595;BME280;18200;48.726;8.892;2023-05-22T05:56:31;96423.72;;;29.66;35.35
31595;BME280;18200;48.726;8.892;2023-05-22T06:00:33;96428.16;;;30.09;34.65
31595;BME280;18200;48.726;8.892;2023-05-22T06:04:33;96430.94;;;30.40;33.61
31595;BME280;18200;48.726;8.892;2023-05-22T06:08:35;96442.16;;;30.26;34.23
31595;BME280;18200;48.726;8.892;2023-05-22T06:12:36;96441.25;;;30.77;33.84
31595;BME280;18200;48.726;8.892;2023-05-22T06:16:37;96446.03;;;31.29;33.62
31595;BME280;18200;48.726;8.892;2023-05-22T06:20:38;96450.97;;;31.73;32.77
31595;BME280;18200;48.726;8.892;2023-05-22T06:24:41;96446.72;;;32.05;32.35
31595;BME280;18200;48.726;8.892;2023-05-22T06:28:47;96447.50;;;32.06;31.83
31595;BME280;18200;48.726;8.892;2023-05-22T06:32:48;96445.19;;;32.38;31.88
31595;BME280;18200;48.726;8.892;2023-05-22T06:36:48;96445.25;;;32.16;32.53
31595;BME280;18200;48.726;8.892;2023-05-22T06:40:56;96445.63;;;31.53;33.19
31595;BME280;18200;48.726;8.892;2023-05-22T06:44:59;96443.44;;;32.29;32.77
31595;BME280;18200;48.726;8.892;2023-05-22T06:49:08;96451.50;;;32.44;32.60
31595;BME280;18200;48.726;8.892;2023-05-22T06:53:15;96453.38;;;31.32;34.29
31595;BME280;18200;48.726;8.892;2023-05-22T06:57:16;96451.25;;;32.42;32.84
31595;BME280;18200;48.726;8.892;2023-05-22T07:01:16;96459.34;;;32.67;32.94
31595;BME280;18200;48.726;8.892;2023-05-22T07:05:29;96462.88;;;32.79;32.67
31595;BME280;18200;48.726;8.892;2023-05-22T07:09:34;96461.28;;;33.69;30.60
31595;BME280;18200;48.726;8.892;2023-05-22T07:13:36;96471.44;;;32.92;32.26
31595;BME280;18200;48.726;8.892;2023-05-22T07:17:36;96477.00;;;33.03;32.24
31595;BME280;18200;48.726;8.892;2023-05-22T07:21:40;96472.28;;;33.50;32.23
31595;BME280;18200;48.726;8.892;2023-05-22T07:25:42;96470.63;;;33.77;31.59
31595;BME280;18200;48.726;8.892;2023-05-22T07:29:43;96471.97;;;34.05;31.03
31595;BME280;18200;48.726;8.892;2023-05-22T07:33:44;96476.47;;;33.73;31.33
31595;BME280;18200;48.726;8.892;2023-05-22T07:37:45;96473.25;;;33.99;30.73
31595;BME280;18200;48.726;8.892;2023-05-22T07:41:48;96477.63;;;33.89;30.38
31595;BME280;18200;48.726;8.892;2023-05-22T07:45:54;96479.59;;;34.05;30.80
31595;BME280;18200;48.726;8.892;2023-05-22T07:49:58;96483.56;;;34.15;30.10
31595;BME280;18200;48.726;8.892;2023-05-22T07:53:59;96488.66;;;34.11;30.11
31595;BME280;18200;48.726;8.892;2023-05-22T07:57:59;96492.81;;;33.93;30.33
31595;BME280;18200;48.726;8.892;2023-05-22T08:02:07;96486.66;;;34.06;30.02
31595;BME280;18200;48.726;8.892;2023-05-22T08:06:09;96488.66;;;34.11;29.73
31595;BME280;18200;48.726;8.892;2023-05-22T08:10:14;96488.66;;;34.11;29.95
31595;BME280;18200;48.726;8.892;2023-05-22T08:14:15;96490.22;;;34.36;29.89
31595;BME280;18200;48.726;8.892;2023-05-22T08:18:15;96492.81;;;34.64;28.63
31595;BME280;18200;48.726;8.892;2023-05-22T08:22:16;96494.53;;;34.02;29.59
31595;BME280;18200;48.726;8.892;2023-05-22T08:26:16;96488.69;;;34.41;28.89
31595;BME280;18200;48.726;8.892;2023-05-22T08:30:16;96484.84;;;34.97;28.16
31595;BME280;18200;48.726;8.892;2023-05-22T08:34:17;96482.41;;;35.37;28.08
31595;BME280;18200;48.726;8.892;2023-05-22T08:38:17;96481.22;;;35.51;27.54
31595;BME280;18200;48.726;8.892;2023-05-22T08:42:18;96489.22;;;35.60;27.41
31595;BME280;18200;48.726;8.892;2023-05-22T08:46:18;96479.25;;;35.83;27.34
31595;BME280;18200;48.726;8.892;2023-05-22T08:50:21;96480.19;;;34.57;29.72
31595;BME280;18200;48.726;8.892;2023-05-22T08:54:25;96478.41;;;35.51;29.02
31595;BME280;18200;48.726;8.892;2023-05-22T08:58:25;96475.41;;;36.05;27.79
31595;BME280;18200;48.726;8.892;2023-05-22T09:02:27;96474.84;;;36.06;28.33
31595;BME280;18200;48.726;8.892;2023-05-22T09:06:28;96477.53;;;34.70;30.72
31595;BME280;18200;48.726;8.892;2023-05-22T09:10:29;96475.03;;;35.95;28.88
31595;BME280;18200;48.726;8.892;2023-05-22T09:14:37;96474.06;;;36.24;27.76
31595;BME280;18200;48.726;8.892;2023-05-22T09:18:39;96474.63;;;35.85;28.90
31595;BME280;18200;48.726;8.892;2023-05-22T09:22:40;96471.41;;;35.63;28.59
31595;BME280;18200;48.726;8.892;2023-05-22T09:26:41;96476.56;;;36.59;27.34
31595;BME280;18200;48.726;8.892;2023-05-22T09:30:41;96469.06;;;38.27;24.74
31595;BME280;18200;48.726;8.892;2023-05-22T09:34:43;96476.63;;;37.12;26.79
31595;BME280;18200;48.726;8.892;2023-05-22T09:38:44;96464.84;;;35.18;30.02
31595;BME280;18200;48.726;8.892;2023-05-22T09:42:44;96452.78;;;35.47;29.27
31595;BME280;18200;48.726;8.892;2023-05-22T09:46:45;96455.16;;;36.30;28.21
31595;BME280;18200;48.726;8.892;2023-05-22T09:50:46;96455.44;;;36.45;28.44
31595;BME280;18200;48.726;8.892;2023-05-22T09:54:50;96448.72;;;35.85;28.78
31595;BME280;18200;48.726;8.892;2023-05-22T09:58:54;96457.41;;;36.00;28.58
31595;BME280;18200;48.726;8.892;2023-05-22T10:03:04;96462.38;;;36.84;27.78
31595;BME280;18200;48.726;8.892;2023-05-22T10:07:08;96466.22;;;36.68;27.56
31595;BME280;18200;48.726;8.892;2023-05-22T10:11:11;96458.91;;;38.24;25.36
31595;BME280;18200;48.726;8.892;2023-05-22T10:15:12;96463.56;;;38.62;24.99
31595;BME280;18200;48.726;8.892;2023-05-22T10:19:13;96466.50;;;36.96;27.93
31595;BME280;18200;48.726;8.892;2023-05-22T10:23:14;96452.44;;;36.83;28.26
31595;BME280;18200;48.726;8.892;2023-05-22T10:27:17;96453.03;;;37.80;26.27
31595;BME280;18200;48.726;8.892;2023-05-22T10:31:31;96447.19;;;38.53;26.15
31595;BME280;18200;48.726;8.892;2023-05-22T10:36:12;96455.41;;;39.00;25.10
31595;BME280;18200;48.726;8.892;2023-05-22T10:40:22;96453.13;;;36.89;27.50
31595;BME280;18200;48.726;8.892;2023-05-22T10:44:27;96440.91;;;37.52;27.09
31595;BME280;18200;48.726;8.892;2023-05-22T10:48:36;96436.44;;;38.24;24.92
31595;BME280;18200;48.726;8.892;2023-05-22T10:52:37;96440.41;;;37.14;26.07
31595;BME280;18200;48.726;8.892;2023-05-22T10:56:38;96434.25;;;36.31;26.50
31595;BME280;18200;48.726;8.892;2023-05-22T11:00:39;96425.94;;;39.14;23.66
31595;BME280;18200;48.726;8.892;2023-05-22T11:04:40;96426.13;;;39.60;22.89
31595;BME280;18200;48.726;8.892;2023-05-22T11:08:40;96428.50;;;38.15;23.80
31595;BME280;18200;48.726;8.892;2023-05-22T11:12:40;96426.66;;;40.99;21.10
31595;BME280;18200;48.726;8.892;2023-05-22T11:16:41;96422.63;;;38.26;24.41
31595;BME280;18200;48.726;8.892;2023-05-22T11:20:41;96409.25;;;39.60;22.72
31595;BME280;18200;48.726;8.892;2023-05-22T11:24:43;96422.81;;;39.84;22.80
31595;BME280;18200;48.726;8.892;2023-05-22T11:28:48;96421.97;;;38.82;23.54
31595;BME280;18200;48.726;8.892;2023-05-22T11:32:48;96409.78;;;40.54;21.30
31595;BME280;18200;48.726;8.892;2023-05-22T11:36:49;96405.97;;;39.05;23.33
31595;BME280;18200;48.726;8.892;2023-05-22T11:40:51;96398.38;;;38.85;22.26
31595;BME280;18200;48.726;8.892;2023-05-22T11:44:52;96394.56;;;39.53;22.49
31595;BME280;18200;48.726;8.892;2023-05-22T11:48:52;96390.25;;;40.56;22.22
31595;BME280;18200;48.726;8.892;2023-05-22T11:52:53;96389.78;;;38.90;23.34
31595;BME280;18200;48.726;8.892;2023-05-22T11:56:54;96392.84;;;40.77;20.84
31595;BME280;18200;48.726;8.892;2023-05-22T12:01:01;96391.38;;;40.46;22.24
31595;BME280;18200;48.726;8.892;2023-05-22T12:05:02;96390.50;;;41.21;21.14
31595;BME280;18200;48.726;8.892;2023-05-22T12:09:03;96392.09;;;40.39;21.81
31595;BME280;18200;48.726;8.892;2023-05-22T12:13:05;96387.13;;;38.56;23.90
31595;BME280;18200;48.726;8.892;2023-05-22T12:17:06;96381.41;;;39.41;22.98
31595;BME280;18200;48.726;8.892;2023-05-22T12:21:06;96384.75;;;39.32;22.87
31595;BME280;18200;48.726;8.892;2023-05-22T12:25:14;96387.81;;;39.41;22.46
31595;BME280;18200;48.726;8.892;2023-05-22T12:29:16;96390.78;;;38.23;23.84
31595;BME280;18200;48.726;8.892;2023-05-22T12:33:17;96391.19;;;39.47;22.72
31595;BME280;18200;48.726;8.892;2023-05-22T12:37:22;96396.19;;;38.98;23.47
31595;BME280;18200;48.726;8.892;2023-05-22T12:41:24;96398.25;;;36.09;26.44
31595;BME280;18200;48.726;8.892;2023-05-22T12:45:25;96410.44;;;37.69;24.76
31595;BME280;18200;48.726;8.892;2023-05-22T12:49:25;96413.63;;;37.52;25.06
31595;BME280;18200;48.726;8.892;2023-05-22T12:53:26;96401.94;;;38.16;24.86
31595;BME280;18200;48.726;8.892;2023-05-22T12:57:26;96404.06;;;37.68;25.50
31595;BME280;18200;48.726;8.892;2023-05-22T13:01:27;96394.72;;;36.80;27.55
31595;BME280;18200;48.726;8.892;2023-05-22T13:05:27;96393.31;;;37.12;26.81
31595;BME280;18200;48.726;8.892;2023-05-22T13:09:27;96401.25;;;37.21;25.99
31595;BME280;18200;48.726;8.892;2023-05-22T13:13:28;96392.34;;;36.71;26.93
31595;BME280;18200;48.726;8.892;2023-05-22T13:17:28;96387.03;;;38.21;25.84
31595;BME280;18200;48.726;8.892;2023-05-22T13:21:28;96391.47;;;37.15;26.13
31595;BME280;18200;48.726;8.892;2023-05-22T13:25:29;96386.50;;;38.01;23.56
31595;BME280;18200;48.726;8.892;2023-05-22T13:29:29;96378.72;;;39.79;22.21
31595;BME280;18200;48.726;8.892;2023-05-22T13:33:30;96374.94;;;39.69;21.74
31595;BME280;18200;48.726;8.892;2023-05-22T13:37:30;96387.38;;;38.66;22.84
31595;BME280;18200;48.726;8.892;2023-05-22T13:41:31;96395.91;;;40.41;22.19
31595;BME280;18200;48.726;8.892;2023-05-22T13:45:31;96391.56;;;40.25;21.99
31595;BME280;18200;48.726;8.892;2023-05-22T13:49:31;96395.25;;;38.96;22.82
31595;BME280;18200;48.726;8.892;2023-05-22T13:53:33;96395.88;;;39.09;23.42
31595;BME280;18200;48.726;8.892;2023-05-22T13:57:34;96381.59;;;40.69;20.55
31595;BME280;18200;48.726;8.892;2023-05-22T14:01:36;96399.03;;;42.17;20.49
31595;BME280;18200;48.726;8.892;2023-05-22T14:05:36;96402.50;;;39.63;21.84
31595;BME280;18200;48.726;8.892;2023-05-22T14:09:36;96395.94;;;41.66;20.17
31595;BME280;18200;48.726;8.892;2023-05-22T14:13:37;96395.69;;;41.39;20.88
31595;BME280;18200;48.726;8.892;2023-05-22T14:17:37;96398.59;;;39.81;22.74
31595;BME280;18200;48.726;8.892;2023-05-22T14:21:37;96396.94;;;40.98;21.76
31595;BME280;18200;48.726;8.892;2023-05-22T14:25:38;96376.34;;;40.05;21.72
31595;BME280;18200;48.726;8.892;2023-05-22T14:29:42;96381.03;;;40.03;21.02
31595;BME280;18200;48.726;8.892;2023-05-22T14:33:42;96382.38;;;40.55;19.49
31595;BME280;18200;48.726;8.892;2023-05-22T14:37:42;96377.44;;;40.70;18.38
31595;BME280;18200;48.726;8.892;2023-05-22T14:41:44;96382.88;;;43.45;16.18
31595;BME280;18200;48.726;8.892;2023-05-22T14:45:44;96401.06;;;42.24;16.75
31595;BME280;18200;48.726;8.892;2023-05-22T14:49:44;96406.78;;;40.67;18.45
31595;BME280;18200;48.726;8.892;2023-05-22T14:53:45;96418.09;;;39.20;20.68
31595;BME280;18200;48.726;8.892;2023-05-22T14:57:45;96434.34;;;41.61;17.89
31595;BME280;18200;48.726;8.892;2023-05-22T15:01:46;96425.28;;;41.70;18.73
31595;BME280;18200;48.726;8.892;2023-05-22T15:05:49;96422.25;;;41.21;19.93
31595;BME280;18200;48.726;8.892;2023-05-22T15:09:49;96424.97;;;38.35;23.72
31595;BME280;18200;48.726;8.892;2023-05-22T15:13:50;96422.13;;;39.47;22.25
31595;BME280;18200;48.726;8.892;2023-05-22T15:17:50;96415.22;;;38.56;24.13
31595;BME280;18200;48.726;8.892;2023-05-22T15:21:51;96421.41;;;37.46;25.59
31595;BME280;18200;48.726;8.892;2023-05-22T15:25:52;96418.09;;;37.68;25.01
31595;BME280;18200;48.726;8.892;2023-05-22T15:29:53;96403.97;;;39.48;23.13
31595;BME280;18200;48.726;8.892;2023-05-22T15:33:53;96396.22;;;38.70;23.64
31595;BME280;18200;48.726;8.892;2023-05-22T15:37:53;96376.34;;;38.40;23.86
31595;BME280;18200;48.726;8.892;2023-05-22T15:41:54;96382.13;;;39.26;22.86
31595;BME280;18200;48.726;8.892;2023-05-22T15:45:54;96362.16;;;39.09;22.67
31595;BME280;18200;48.726;8.892;2023-05-22T15:49:54;96362.63;;;39.28;23.14
31595;BME280;18200;48.726;8.892;2023-05-22T15:53:56;96353.53;;;40.94;21.28
31595;BME280;18200;48.726;8.892;2023-05-22T15:57:56;96354.91;;;41.33;21.21
31595;BME280;18200;48.726;8.892;2023-05-22T16:01:56;96361.75;;;41.15;21.64
31595;BME280;18200;48.726;8.892;2023-05-22T16:05:57;96366.63;;;42.18;20.98
31595;BME280;18200;48.726;8.892;2023-05-22T16:09:57;96371.47;;;42.25;20.60
31595;BME280;18200;48.726;8.892;2023-05-22T16:13:58;96373.69;;;42.10;20.73
31595;BME280;18200;48.726;8.892;2023-05-22T16:17:59;96357.53;;;40.68;22.20
31595;BME280;18200;48.726;8.892;2023-05-22T16:21:59;96366.41;;;41.20;22.02
31595;BME280;18200;48.726;8.892;2023-05-22T16:26:00;96373.22;;;41.09;21.69
31595;BME280;18200;48.726;8.892;2023-05-22T16:30:00;96382.09;;;38.62;23.93
31595;BME280;18200;48.726;8.892;2023-05-22T16:34:02;96394.81;;;38.84;23.92
31595;BME280;18200;48.726;8.892;2023-05-22T16:38:02;96404.69;;;39.49;23.56
31595;BME280;18200;48.726;8.892;2023-05-22T16:42:03;96407.97;;;37.99;24.07
31595;BME280;18200;48.726;8.892;2023-05-22T16:46:03;96406.63;;;38.62;22.96
31595;BME280;18200;48.726;8.892;2023-05-22T16:50:04;96403.84;;;39.18;22.86
31595;BME280;18200;48.726;8.892;2023-05-22T16:54:05;96409.66;;;38.92;23.04
31595;BME280;18200;48.726;8.892;2023-05-22T16:58:05;96408.75;;;38.97;22.66
31595;BME280;18200;48.726;8.892;2023-05-22T17:02:07;96404.06;;;39.00;22.64
31595;BME280;18200;48.726;8.892;2023-05-22T17:06:07;96408.97;;;38.99;22.81
31595;BME280;18200;48.726;8.892;2023-05-22T17:10:08;96411.72;;;39.27;22.80
31595;BME280;18200;48.726;8.892;2023-05-22T17:14:08;96412.28;;;38.21;25.63
31595;BME280;18200;48.726;8.892;2023-05-22T17:18:10;96430.44;;;35.84;27.63
31595;BME280;18200;48.726;8.892;2023-05-22T17:22:10;96453.16;;;34.41;28.86
31595;BME280;18200;48.726;8.892;2023-05-22T17:26:12;96440.53;;;34.88;28.77
31595;BME280;18200;48.726;8.892;2023-05-22T17:30:13;96436.84;;;33.39;30.56
31595;BME280;18200;48.726;8.892;2023-05-22T17:34:13;96444.75;;;33.82;30.11
31595;BME280;18200;48.726;8.892;2023-05-22T17:38:14;96455.78;;;32.78;33.51
31595;BME280;18200;48.726;8.892;2023-05-22T17:42:14;96451.25;;;32.75;33.72
31595;BME280;18200;48.726;8.892;2023-05-22T17:46:15;96449.47;;;32.77;33.89
31595;BME280;18200;48.726;8.892;2023-05-22T17:50:15;96451.22;;;34.01;32.21
31595;BME280;18200;48.726;8.892;2023-05-22T17:54:15;96449.75;;;32.41;34.31
31595;BME280;18200;48.726;8.892;2023-05-22T17:58:18;96440.66;;;33.83;32.20
31595;BME280;18200;48.726;8.892;2023-05-22T18:02:19;96433.03;;;34.54;31.41
31595;BME280;18200;48.726;8.892;2023-05-22T18:06:20;96439.69;;;34.69;30.33
31595;BME280;18200;48.726;8.892;2023-05-22T18:10:22;96441.59;;;33.55;32.64
31595;BME280;18200;48.726;8.892;2023-05-22T18:14:23;96441.13;;;32.72;33.68
31595;BME280;18200;48.726;8.892;2023-05-22T18:18:23;96431.59;;;33.30;32.73
31595;BME280;18200;48.726;8.892;2023-05-22T18:22:24;96440.63;;;34.53;30.44
31595;BME280;18200;48.726;8.892;2023-05-22T18:26:24;96437.00;;;33.06;33.56
31595;BME280;18200;48.726;8.892;2023-05-22T18:30:25;96423.72;;;34.16;31.41
31595;BME280;18200;48.726;8.892;2023-05-22T18:34:26;96421.09;;;35.01;30.04
31595;BME280;18200;48.726;8.892;2023-05-22T18:38:26;96418.63;;;35.17;29.87
31595;BME280;18200;48.726;8.892;2023-05-22T18:42:28;96413.34;;;35.32;29.21
31595;BME280;18200;48.726;8.892;2023-05-22T18:46:28;96418.44;;;34.90;29.80
31595;BME280;18200;48.726;8.892;2023-05-22T18:50:32;96436.34;;;35.00;29.34
31595;BME280;18200;48.726;8.892;2023-05-22T18:54:32;96444.88;;;35.51;28.79
31595;BME280;18200;48.726;8.892;2023-05-22T18:58:32;96442.38;;;35.29;29.23
31595;BME280;18200;48.726;8.892;2023-05-22T19:02:33;96429.53;;;35.57;28.92
31595;BME280;18200;48.726;8.892;2023-05-22T19:06:35;96430.25;;;35.21;29.34
31595;BME280;18200;48.726;8.892;2023-05-22T19:10:36;96434.13;;;34.93;30.19
31595;BME280;18200;48.726;8.892;2023-05-22T19:14:37;96451.78;;;35.50;28.85
31595;BME280;18200;48.726;8.892;2023-05-22T19:18:37;96463.34;;;35.91;28.34
31595;BME280;18200;48.726;8.892;2023-05-22T19:22:37;96461.53;;;35.38;28.76
31595;BME280;18200;48.726;8.892;2023-05-22T19:26:38;96473.06;;;35.53;28.44
31595;BME280;18200;48.726;8.892;2023-05-22T19:30:38;96490.69;;;35.42;28.77
31595;BME280;18200;48.726;8.892;2023-05-22T19:34:39;96495.72;;;35.68;28.66
31595;BME280;18200;48.726;8.892;2023-05-22T19:38:39;96492.56;;;35.77;28.16
31595;BME280;18200;48.726;8.892;2023-05-22T19:42:40;96494.00;;;35.65;28.73
31595;BME280;18200;48.726;8.892;2023-05-22T19:46:41;96497.63;;;35.36;29.17
31595;BME280;18200;48.726;8.892;2023-05-22T19:50:42;96486.69;;;34.65;30.30
31595;BME280;18200;48.726;8.892;2023-05-22T19:54:45;96495.50;;;33.63;31.91
31595;BME280;18200;48.726;8.892;2023-05-22T19:58:45;96501.38;;;34.71;30.08
31595;BME280;18200;48.726;8.892;2023-05-22T20:02:46;96508.63;;;34.56;29.93
31595;BME280;18200;48.726;8.892;2023-05-22T20:06:46;96504.88;;;34.77;30.35
31595;BME280;18200;48.726;8.892;2023-05-22T20:10:47;96501.13;;;34.69;30.27
31595;BME280;18200;48.726;8.892;2023-05-22T20:14:48;96503.47;;;34.89;30.09
31595;BME280;18200;48.726;8.892;2023-05-22T20:18:49;96509.22;;;34.43;30.83
31595;BME280;18200;48.726;8.892;2023-05-22T20:22:50;96516.09;;;34.01;31.31
31595;BME280;18200;48.726;8.892;2023-05-22T20:26:51;96526.66;;;34.14;31.25
31595;BME280;18200;48.726;8.892;2023-05-22T20:30:52;96535.44;;;33.83;31.78
31595;BME280;18200;48.726;8.892;2023-05-22T20:34:53;96531.31;;;33.95;31.66
31595;BME280;18200;48.726;8.892;2023-05-22T20:38:54;96539.19;;;33.91;30.92
31595;BME280;18200;48.726;8.892;2023-05-22T20:42:57;96546.50;;;34.05;31.38
31595;BME280;18200;48.726;8.892;2023-05-22T20:46:57;96548.00;;;34.06;30.89
31595;BME280;18200;48.726;8.892;2023-05-22T20:50:58;96559.53;;;33.86;30.94
31595;BME280;18200;48.726;8.892;2023-05-22T20:54:58;96567.22;;;33.69;31.14
31595;BME280;18200;48.726;8.892;2023-05-22T20:58:59;96573.88;;;33.43;31.40
31595;BME280;18200;48.726;8.892;2023-05-22T21:02:59;96572.38;;;33.37;32.01
31595;BME280;18200;48.726;8.892;2023-05-22T21:07:00;96564.59;;;33.02;32.79
31595;BME280;18200;48.726;8.892;2023-05-22T21:11:00;96566.84;;;33.15;32.76
31595;BME280;18200;48.726;8.892;2023-05-22T21:15:01;96575.22;;;32.87;32.72
31595;BME280;18200;48.726;8.892;2023-05-22T21:19:01;96576.97;;;33.12;32.48
31595;BME280;18200;48.726;8.892;2023-05-22T21:23:01;96577.44;;;33.27;31.73
31595;BME280;18200;48.726;8.892;2023-05-22T21:27:02;96580.28;;;32.83;32.87
31595;BME280;18200;48.726;8.892;2023-05-22T21:31:02;96574.72;;;32.61;33.30